Time;durP1;ratioP1;P1;durP2;ratioP2;P2;SDS_P1;SDS_P2;PMS_P1;PMS_P2;Temp;Humidity;BMP_temperature;BMP_pressure;BME280_temperature;BME280_humidity;BME280_pressure;Samples;Min_cycle;Max_cycle;Signal;HPM_P1;HPM_P2
2023/01/17 00:01:53;;;;;;;0.20;0.10;;;18.60;66.60;;;;;;4527755;31;20155;-68
2023/01/17 00:09:55;;;;;;;1.00;0.22;;;18.50;66.60;;;;;;4511998;31;20294;-68
2023/01/17 00:12:27;;;;;;;0.65;0.20;;;18.50;66.60;;;;;;4525565;31;20143;-68
2023/01/17 00:14:54;;;;;;;0.45;0.30;;;18.50;66.60;;;;;;4512920;31;20807;-67
2023/01/17 00:17:21;;;;;;;0.40;0.20;;;18.50;66.70;;;;;;4514376;31;20104;-67
2023/01/17 01:35:05;;;;;;;2.00;0.40;;;18.10;66.70;;;;;;4519225;31;20274;-67
2023/01/17 01:37:31;;;;;;;1.30;0.30;;;18.10;67.60;;;;;;4518740;31;20112;-67
2023/01/17 01:39:56;;;;;;;0.30;0.20;;;18.10;66.70;;;;;;4516825;31;20120;-67
2023/01/17 01:42:22;;;;;;;0.52;0.22;;;18.10;66.70;;;;;;4528186;31;20124;-67
2023/01/17 01:44:51;;;;;;;0.30;0.10;;;18.10;66.80;;;;;;4530216;31;20108;-68
2023/01/17 01:47:29;;;;;;;0.80;0.40;;;18.00;66.70;;;;;;4529122;31;20603;-68
2023/01/17 01:49:58;;;;;;;0.63;0.30;;;18.10;66.70;;;;;;4528991;31;20144;-67
2023/01/17 01:52:27;;;;;;;0.93;0.20;;;18.00;66.70;;;;;;4516848;31;20124;-67
2023/01/17 01:55:34;;;;;;;0.38;0.10;;;18.00;66.80;;;;;;4528741;31;20128;-67
2023/01/17 01:58:07;;;;;;;0.73;0.20;;;18.00;67.60;;;;;;4490119;31;20188;-67
2023/01/17 02:00:36;;;;;;;0.55;0.20;;;18.00;66.80;;;;;;4516380;31;20547;-67
2023/01/17 02:03:06;;;;;;;0.50;0.30;;;18.00;66.80;;;;;;4514345;31;20162;-67
2023/01/17 02:05:34;;;;;;;0.60;0.20;;;18.00;66.70;;;;;;4531109;31;20197;-67
2023/01/17 02:08:15;;;;;;;0.60;0.10;;;18.00;66.70;;;;;;4513572;31;20205;-68
2023/01/17 02:10:43;;;;;;;0.60;0.10;;;18.00;66.80;;;;;;4530342;31;20137;-68
2023/01/17 02:13:10;;;;;;;0.88;0.30;;;18.00;66.80;;;;;;4530839;31;20095;-67
2023/01/17 02:15:41;;;;;;;0.82;0.30;;;18.00;66.80;;;;;;4514984;31;20261;-67
2023/01/17 02:18:44;;;;;;;0.63;0.30;;;17.90;66.70;;;;;;4530306;31;20142;-67
2023/01/17 02:21:32;;;;;;;0.88;0.17;;;17.90;66.70;;;;;;4529630;31;20248;-67
2023/01/17 02:24:35;;;;;;;0.65;0.20;;;17.90;66.70;;;;;;4529288;31;20651;-67
2023/01/17 02:27:03;;;;;;;0.55;0.20;;;17.90;66.70;;;;;;4525634;31;20120;-67
2023/01/17 02:29:50;;;;;;;1.65;0.30;;;17.90;66.80;;;;;;4523243;31;20261;-67
2023/01/17 02:32:34;;;;;;;0.63;0.20;;;17.90;66.70;;;;;;4520087;31;20171;-67
2023/01/17 02:35:17;;;;;;;0.85;0.30;;;17.80;66.70;;;;;;4516164;31;20171;-68
2023/01/17 02:37:56;;;;;;;1.27;0.40;;;17.80;66.70;;;;;;4528969;31;20124;-67
2023/01/17 02:40:26;;;;;;;1.40;0.30;;;17.80;66.70;;;;;;4530213;31;20132;-68
2023/01/17 02:43:01;;;;;;;0.70;0.20;;;17.80;66.70;;;;;;4529823;31;20185;-67
2023/01/17 02:45:27;;;;;;;1.05;0.30;;;17.80;66.70;;;;;;4529191;31;20564;-67
2023/01/17 02:47:53;;;;;;;1.08;0.28;;;17.80;66.70;;;;;;4502467;31;20194;-67
2023/01/17 02:50:22;;;;;;;0.77;0.20;;;17.80;66.70;;;;;;4514477;31;20261;-67
2023/01/17 02:53:33;;;;;;;1.10;0.20;;;17.80;66.70;;;;;;4530393;31;20186;-67
2023/01/17 02:56:02;;;;;;;1.30;0.40;;;17.80;66.60;;;;;;4517147;31;20616;-67
2023/01/17 02:58:47;;;;;;;1.10;0.30;;;17.80;66.70;;;;;;4514591;31;20143;-67
2023/01/17 03:01:42;;;;;;;1.35;0.40;;;17.80;66.60;;;;;;4530355;31;20568;-68
2023/01/17 03:04:24;;;;;;;1.15;0.30;;;17.70;66.60;;;;;;4528267;31;20132;-67
2023/01/17 03:06:57;;;;;;;0.95;0.20;;;17.80;66.70;;;;;;4514696;31;20132;-67
2023/01/17 03:09:25;;;;;;;1.27;0.32;;;17.80;66.70;;;;;;4515730;31;20112;-67
2023/01/17 03:11:51;;;;;;;0.65;0.30;;;17.70;66.70;;;;;;4528561;31;20136;-67
2023/01/17 03:14:17;;;;;;;1.45;0.20;;;17.70;66.60;;;;;;4529862;31;20160;-67
2023/01/17 03:16:43;;;;;;;1.35;0.30;;;17.70;66.70;;;;;;4514603;31;20124;-67
2023/01/17 03:19:09;;;;;;;1.10;0.30;;;17.70;66.60;;;;;;4529360;31;20164;-67
2023/01/17 03:21:35;;;;;;;0.73;0.20;;;17.70;66.70;;;;;;4529951;31;20145;-67
2023/01/17 03:24:02;;;;;;;1.40;0.28;;;17.70;66.70;;;;;;4528569;31;20131;-67
2023/01/17 03:26:27;;;;;;;1.45;0.38;;;17.70;66.70;;;;;;4515568;31;20502;-67
2023/01/17 03:28:53;;;;;;;1.75;0.30;;;17.60;66.60;;;;;;4513956;31;20124;-67
2023/01/17 03:31:19;;;;;;;1.98;0.30;;;17.70;66.60;;;;;;4515612;31;20465;-67
2023/01/17 03:33:45;;;;;;;1.45;0.30;;;17.60;66.60;;;;;;4528711;31;20135;-67
2023/01/17 03:36:11;;;;;;;1.70;0.25;;;17.60;66.60;;;;;;4515352;31;20235;-67
2023/01/17 03:38:37;;;;;;;1.75;0.20;;;17.60;66.60;;;;;;4515162;31;20327;-67
2023/01/17 03:41:03;;;;;;;1.40;0.40;;;17.60;66.60;;;;;;4514384;31;20174;-67
2023/01/17 03:43:29;;;;;;;1.02;0.30;;;17.60;66.60;;;;;;4515365;31;20200;-67
2023/01/17 03:46:03;;;;;;;1.65;0.25;;;17.60;66.70;;;;;;4528297;31;20108;-67
2023/01/17 03:48:29;;;;;;;1.02;0.30;;;17.60;66.60;;;;;;4529495;31;20136;-67
2023/01/17 03:50:55;;;;;;;1.13;0.30;;;17.60;66.60;;;;;;4528732;31;20169;-68
2023/01/17 03:53:21;;;;;;;0.80;0.30;;;17.60;66.70;;;;;;4529398;31;20130;-67
2023/01/17 03:55:47;;;;;;;1.67;0.25;;;17.60;66.70;;;;;;4529527;31;20196;-67
2023/01/17 03:58:13;;;;;;;1.10;0.30;;;17.60;66.80;;;;;;4500641;31;20166;-67
2023/01/17 04:00:39;;;;;;;2.03;0.32;;;17.50;66.70;;;;;;4527640;31;20120;-67
2023/01/17 04:03:05;;;;;;;1.15;0.30;;;17.50;66.70;;;;;;4526591;31;20132;-67
2023/01/17 04:05:31;;;;;;;2.30;0.40;;;17.50;66.70;;;;;;4527281;31;20155;-67
2023/01/17 04:07:57;;;;;;;1.65;0.30;;;17.50;66.70;;;;;;4527096;31;20124;-67
2023/01/17 04:10:23;;;;;;;0.55;0.20;;;17.50;66.70;;;;;;4528300;31;20127;-67
2023/01/17 04:12:49;;;;;;;0.73;0.28;;;17.50;66.80;;;;;;4526393;31;20131;-67
2023/01/17 04:15:15;;;;;;;1.10;0.40;;;17.50;66.70;;;;;;4525881;31;20130;-67
2023/01/17 04:17:40;;;;;;;1.42;0.25;;;17.50;66.70;;;;;;4527478;31;20186;-67
2023/01/17 04:20:12;;;;;;;0.85;0.40;;;17.50;66.70;;;;;;4526962;31;20193;-67
2023/01/17 04:22:38;;;;;;;0.47;0.20;;;17.50;66.70;;;;;;4514120;31;20128;-67
2023/01/17 04:25:04;;;;;;;1.02;0.30;;;17.50;66.80;;;;;;4509436;31;20154;-67
2023/01/17 04:27:30;;;;;;;1.13;0.30;;;17.40;66.70;;;;;;4527359;31;20155;-68
2023/01/17 04:29:55;;;;;;;0.75;0.20;;;17.40;67.60;;;;;;4512094;31;20136;-67
2023/01/17 04:32:21;;;;;;;0.82;0.30;;;17.40;66.70;;;;;;4513228;31;20555;-67
2023/01/17 04:34:47;;;;;;;0.82;0.20;;;17.40;66.70;;;;;;4513817;31;20124;-67
2023/01/17 04:37:13;;;;;;;1.90;0.40;;;17.40;66.80;;;;;;4513270;31;20249;-67
2023/01/17 04:39:39;;;;;;;0.80;0.30;;;17.40;66.70;;;;;;4513563;31;20128;-67
2023/01/17 04:42:04;;;;;;;1.25;0.30;;;17.40;66.70;;;;;;4510295;31;20216;-67
2023/01/17 04:44:30;;;;;;;0.90;0.22;;;17.40;66.70;;;;;;4513333;31;20174;-68
2023/01/17 04:46:56;;;;;;;0.80;0.32;;;17.40;66.70;;;;;;4512892;31;20608;-67
2023/01/17 04:49:22;;;;;;;0.38;0.10;;;17.40;66.70;;;;;;4513495;31;20171;-67
2023/01/17 04:51:47;;;;;;;0.75;0.30;;;17.40;66.70;;;;;;4511928;31;20138;-67
2023/01/17 04:54:13;;;;;;;0.98;0.22;;;17.40;66.60;;;;;;4485720;31;20128;-67
2023/01/17 04:56:39;;;;;;;1.10;0.40;;;17.40;66.50;;;;;;4502342;31;20116;-67
2023/01/17 04:59:06;;;;;;;1.02;0.40;;;17.40;66.30;;;;;;4503878;31;20776;-67
2023/01/17 05:01:52;;;;;;;1.33;0.25;;;17.40;66.30;;;;;;4513391;31;20193;-67
2023/01/17 05:04:18;;;;;;;1.55;0.30;;;17.50;66.30;;;;;;4499672;31;20139;-67
2023/01/17 05:06:45;;;;;;;0.60;0.20;;;17.50;66.10;;;;;;4523440;31;20117;-67
2023/01/17 05:09:10;;;;;;;1.00;0.20;;;17.50;66.10;;;;;;4512180;31;20135;-67
2023/01/17 05:11:36;;;;;;;0.73;0.28;;;17.50;66.00;;;;;;4512281;31;20154;-67
2023/01/17 05:14:02;;;;;;;0.63;0.20;;;17.50;65.90;;;;;;4526758;31;20144;-67
2023/01/17 05:16:28;;;;;;;0.85;0.20;;;17.50;65.80;;;;;;4512070;31;20221;-67
2023/01/17 05:18:53;;;;;;;0.68;0.25;;;17.50;65.80;;;;;;4512955;31;20214;-68
2023/01/17 05:21:20;;;;;;;1.38;0.40;;;17.50;65.70;;;;;;4512050;31;20144;-67
2023/01/17 05:23:46;;;;;;;1.33;0.35;;;17.50;65.70;;;;;;4514635;31;20116;-67
2023/01/17 05:26:12;;;;;;;0.47;0.20;;;17.50;65.60;;;;;;4529929;31;20132;-67
2023/01/17 05:28:38;;;;;;;0.93;0.28;;;17.60;65.60;;;;;;4526801;31;20154;-67
2023/01/17 05:31:04;;;;;;;0.75;0.22;;;17.60;65.50;;;;;;4528698;31;20424;-67
2023/01/17 05:33:30;;;;;;;0.82;0.20;;;17.60;65.50;;;;;;4513061;31;20138;-67
2023/01/17 05:35:56;;;;;;;0.82;0.20;;;17.60;65.40;;;;;;4528733;31;20224;-67
2023/01/17 05:38:22;;;;;;;1.80;0.22;;;17.60;65.40;;;;;;4515410;31;20139;-67
2023/01/17 05:40:48;;;;;;;0.85;0.20;;;17.60;65.40;;;;;;4528951;31;20143;-68
2023/01/17 05:43:14;;;;;;;0.77;0.20;;;17.60;65.50;;;;;;4515826;31;20128;-67
2023/01/17 05:45:40;;;;;;;0.90;0.40;;;17.60;65.50;;;;;;4529242;31;20175;-67
2023/01/17 05:48:07;;;;;;;1.00;0.20;;;17.60;65.50;;;;;;4515993;31;20135;-67
2023/01/17 05:50:35;;;;;;;1.05;0.38;;;17.60;65.40;;;;;;4526064;31;20228;-67
2023/01/17 05:53:08;;;;;;;1.15;0.40;;;17.60;65.40;;;;;;4529168;31;20185;-67
2023/01/17 05:55:34;;;;;;;0.88;0.30;;;17.60;65.40;;;;;;4527502;31;20695;-67
2023/01/17 05:58:00;;;;;;;1.75;0.22;;;17.60;65.40;;;;;;4515346;31;20128;-67
2023/01/17 06:00:26;;;;;;;1.45;0.20;;;17.60;65.40;;;;;;4520108;31;20147;-67
2023/01/17 06:02:53;;;;;;;0.70;0.10;;;17.60;65.40;;;;;;4499823;31;20128;-67
2023/01/17 06:05:20;;;;;;;0.63;0.25;;;17.60;65.40;;;;;;4512330;31;20124;-67
2023/01/17 06:07:47;;;;;;;1.38;0.30;;;17.60;65.40;;;;;;4514046;31;20258;-67
2023/01/17 06:10:15;;;;;;;0.50;0.20;;;17.60;65.40;;;;;;4515954;31;20144;-67
2023/01/17 06:12:42;;;;;;;1.08;0.30;;;17.60;65.30;;;;;;4514635;31;20132;-67
2023/01/17 06:15:09;;;;;;;0.88;0.30;;;17.60;65.30;;;;;;4510225;31;20128;-67
2023/01/17 06:17:35;;;;;;;0.95;0.20;;;17.60;65.20;;;;;;4530457;31;20143;-67
2023/01/17 06:20:02;;;;;;;1.05;0.28;;;17.60;65.20;;;;;;4529056;31;20562;-67
2023/01/17 06:22:29;;;;;;;1.27;0.28;;;17.60;65.20;;;;;;4516377;31;20136;-67
2023/01/17 06:24:54;;;;;;;2.65;0.32;;;17.60;65.00;;;;;;4528987;31;20564;-67
2023/01/17 06:27:20;;;;;;;1.95;0.20;;;17.60;65.00;;;;;;4530597;31;20224;-67
2023/01/17 06:29:46;;;;;;;2.00;0.50;;;17.60;65.00;;;;;;4527548;31;20221;-67
2023/01/17 06:32:13;;;;;;;0.65;0.20;;;17.70;64.80;;;;;;4528579;31;20143;-67
2023/01/17 06:34:39;;;;;;;2.00;0.45;;;17.70;64.60;;;;;;4523006;31;20142;-67
2023/01/17 06:37:06;;;;;;;1.00;0.28;;;17.80;64.30;;;;;;4509948;31;20132;-67
2023/01/17 06:39:32;;;;;;;1.13;0.22;;;17.90;64.10;;;;;;4519382;31;20116;-67
2023/01/17 06:41:58;;;;;;;0.77;0.20;;;18.00;63.70;;;;;;4506328;31;20240;-67
2023/01/17 06:44:25;;;;;;;0.52;0.17;;;18.20;63.50;;;;;;4522627;31;20700;-67
2023/01/17 06:46:51;;;;;;;1.02;0.20;;;18.30;63.10;;;;;;4520069;31;20190;-66
2023/01/17 06:49:17;;;;;;;1.92;0.10;;;18.40;62.80;;;;;;4512003;31;20135;-67
2023/01/17 06:51:44;;;;;;;1.35;0.45;;;18.50;62.50;;;;;;4522446;31;20087;-67
2023/01/17 06:54:10;;;;;;;2.40;0.30;;;18.60;62.20;;;;;;4498298;31;20132;-67
2023/01/17 06:56:36;;;;;;;0.63;0.30;;;18.80;61.80;;;;;;4530215;31;20116;-67
2023/01/17 06:59:03;;;;;;;1.35;0.73;;;18.90;61.50;;;;;;4507762;31;20152;-67
2023/01/17 07:01:29;;;;;;;1.70;0.30;;;19.00;61.10;;;;;;4513232;31;20560;-67
2023/01/17 07:03:56;;;;;;;1.30;0.30;;;19.10;60.90;;;;;;4516101;31;20158;-68
2023/01/17 07:06:27;;;;;;;0.90;0.30;;;19.20;60.80;;;;;;4518129;31;20146;-68
2023/01/17 07:08:55;;;;;;;2.67;0.32;;;19.20;60.60;;;;;;4526201;31;20198;-68
2023/01/17 07:11:21;;;;;;;1.98;0.30;;;19.30;60.50;;;;;;4519370;31;20206;-67
2023/01/17 07:13:47;;;;;;;5.32;0.40;;;19.40;60.50;;;;;;4522694;31;20124;-69
2023/01/17 07:16:13;;;;;;;3.17;0.30;;;19.40;60.40;;;;;;4526192;31;20584;-67
2023/01/17 07:18:39;;;;;;;2.42;0.43;;;19.50;61.30;;;;;;4527767;31;20250;-69
2023/01/17 07:21:11;;;;;;;1.42;0.40;;;19.50;60.40;;;;;;4513575;31;20146;-68
2023/01/17 07:23:37;;;;;;;2.38;0.60;;;19.50;60.40;;;;;;4511796;31;20250;-68
2023/01/17 07:26:03;;;;;;;4.22;0.30;;;19.50;60.40;;;;;;4527827;31;20134;-68
2023/01/17 07:28:29;;;;;;;0.93;0.20;;;19.50;60.50;;;;;;4501047;31;20288;-68
2023/01/17 07:30:56;;;;;;;1.52;0.30;;;19.50;60.50;;;;;;4515623;31;20112;-69
2023/01/17 07:33:21;;;;;;;1.90;0.25;;;19.50;60.60;;;;;;4525244;31;20143;-67
2023/01/17 07:35:47;;;;;;;3.40;0.30;;;19.50;60.60;;;;;;4528460;31;20127;-66
2023/01/17 07:38:15;;;;;;;1.90;0.35;;;19.50;60.50;;;;;;4513657;31;20171;-68
2023/01/17 07:40:41;;;;;;;2.05;0.40;;;19.50;60.40;;;;;;4527798;31;20174;-70
2023/01/17 07:43:12;;;;;;;2.47;0.30;;;19.50;60.50;;;;;;4501960;31;20081;-72
2023/01/17 07:45:44;;;;;;;1.63;0.40;;;19.50;60.50;;;;;;4513443;31;20150;-69
2023/01/17 07:48:10;;;;;;;1.25;0.30;;;19.60;60.60;;;;;;4514815;31;20139;-68
2023/01/17 07:50:37;;;;;;;1.23;0.30;;;19.60;60.70;;;;;;4489398;31;20128;-71
2023/01/17 07:53:04;;;;;;;1.95;0.50;;;19.60;60.70;;;;;;4518941;31;20188;-67
2023/01/17 07:55:32;;;;;;;4.25;0.40;;;19.60;60.70;;;;;;4514260;31;20136;-67
2023/01/17 07:57:58;;;;;;;6.95;0.40;;;19.60;60.60;;;;;;4513408;31;20136;-71
2023/01/17 08:00:27;;;;;;;7.97;0.50;;;19.60;60.60;;;;;;4509726;31;20117;-71
2023/01/17 08:02:58;;;;;;;1.77;0.40;;;19.60;60.60;;;;;;4516239;31;20191;-70
2023/01/17 08:05:24;;;;;;;3.33;0.47;;;19.60;60.80;;;;;;4524634;31;20281;-70
2023/01/17 08:07:50;;;;;;;4.35;0.60;;;19.60;60.80;;;;;;4516295;31;20224;-70
2023/01/17 08:10:17;;;;;;;3.88;0.65;;;19.60;60.80;;;;;;4514125;31;20138;-69
2023/01/17 08:12:47;;;;;;;1.48;0.40;;;19.70;60.80;;;;;;4516991;31;20139;-69
2023/01/17 08:15:15;;;;;;;2.53;0.55;;;19.70;60.80;;;;;;4512829;31;20551;-70
2023/01/17 08:17:51;;;;;;;1.77;0.65;;;19.70;60.80;;;;;;4517890;31;20515;-68
2023/01/17 08:20:18;;;;;;;4.63;0.52;;;19.70;60.70;;;;;;4530814;31;20116;-70
2023/01/17 08:22:44;;;;;;;3.25;0.52;;;19.70;60.80;;;;;;4517505;31;20679;-68
2023/01/17 08:25:11;;;;;;;3.65;0.47;;;19.70;60.80;;;;;;4530345;31;20128;-68
2023/01/17 08:27:38;;;;;;;3.95;0.57;;;19.70;60.80;;;;;;4531325;31;20143;-68
2023/01/17 08:30:05;;;;;;;4.47;0.60;;;19.70;60.80;;;;;;4527607;31;20100;-68
2023/01/17 08:32:31;;;;;;;2.42;0.57;;;19.80;60.70;;;;;;4528793;31;20150;-69
2023/01/17 08:34:57;;;;;;;5.30;0.40;;;19.80;60.70;;;;;;4528219;31;20136;-69
2023/01/17 08:37:23;;;;;;;1.25;0.20;;;19.80;60.50;;;;;;4528350;31;20274;-69
2023/01/17 08:39:49;;;;;;;4.93;0.50;;;19.80;60.50;;;;;;4519807;31;20196;-69
2023/01/17 08:42:15;;;;;;;2.35;0.70;;;19.90;60.50;;;;;;4495707;31;20136;-69
2023/01/17 08:44:42;;;;;;;2.80;0.60;;;19.90;60.50;;;;;;4503186;31;20158;-70
2023/01/17 08:47:08;;;;;;;5.57;0.35;;;19.90;60.50;;;;;;4527374;31;20553;-69
2023/01/17 08:49:34;;;;;;;3.10;0.45;;;19.90;60.50;;;;;;4493962;31;20135;-69
2023/01/17 08:52:00;;;;;;;4.05;0.70;;;19.90;60.50;;;;;;4515987;31;20128;-68
2023/01/17 08:54:27;;;;;;;4.78;0.52;;;20.00;60.50;;;;;;4528820;31;20123;-68
2023/01/17 08:56:54;;;;;;;6.10;1.00;;;20.00;60.50;;;;;;4525964;31;20249;-69
2023/01/17 08:59:20;;;;;;;4.97;1.20;;;19.90;60.50;;;;;;4514779;31;20120;-70
2023/01/17 09:01:46;;;;;;;9.48;2.13;;;20.00;60.20;;;;;;4527435;31;20146;-67
2023/01/17 09:04:13;;;;;;;4.15;1.60;;;20.10;60.00;;;;;;4514210;31;20124;-67
2023/01/17 09:06:41;;;;;;;9.15;2.35;;;20.20;59.90;;;;;;4527029;31;20136;-66
2023/01/17 09:09:08;;;;;;;8.43;2.20;;;20.40;59.90;;;;;;4526164;31;20124;-67
2023/01/17 09:11:36;;;;;;;10.45;2.33;;;20.50;59.60;;;;;;4527752;31;20161;-69
2023/01/17 09:14:02;;;;;;;8.07;2.05;;;20.50;59.60;;;;;;4516874;31;20124;-70
2023/01/17 09:16:28;;;;;;;10.10;2.70;;;20.40;59.70;;;;;;4515971;31;20135;-68
2023/01/17 09:18:56;;;;;;;18.05;2.53;;;20.40;59.90;;;;;;4516478;31;20132;-69
2023/01/17 09:21:22;;;;;;;11.23;2.75;;;20.30;60.10;;;;;;4501066;31;20073;-69
2023/01/17 09:23:48;;;;;;;8.32;2.60;;;20.30;60.40;;;;;;4521931;31;20147;-69
2023/01/17 09:26:28;;;;;;;9.98;2.75;;;20.20;60.60;;;;;;4529003;31;20167;-68
2023/01/17 09:28:54;;;;;;;5.85;2.38;;;20.10;60.70;;;;;;4508421;31;20188;-67
2023/01/17 09:31:22;;;;;;;7.22;2.40;;;20.10;61.00;;;;;;4525408;31;20131;-67
2023/01/17 09:33:49;;;;;;;6.10;2.22;;;20.10;61.20;;;;;;4515186;31;20144;-65
2023/01/17 09:36:15;;;;;;;5.82;2.33;;;20.10;61.20;;;;;;4522270;31;20140;-68
2023/01/17 09:38:41;;;;;;;6.28;2.10;;;20.10;61.30;;;;;;4516006;31;20212;-68
2023/01/17 09:41:21;;;;;;;5.68;2.53;;;20.10;61.40;;;;;;4527759;31;20556;-68
2023/01/17 09:43:55;;;;;;;7.85;2.28;;;20.10;61.30;;;;;;4529547;31;20135;-68
2023/01/17 09:46:25;;;;;;;;;;;20.20;60.70;;;;;;4528192;31;20142;-69
2023/01/17 09:49:25;;;;;;;5.03;2.08;;;20.20;60.60;;;;;;4498115;31;20570;-69
2023/01/17 09:51:52;;;;;;;5.95;2.08;;;20.20;60.40;;;;;;4525797;31;20144;-69
2023/01/17 09:54:23;;;;;;;6.00;1.88;;;20.20;60.30;;;;;;4521660;31;20143;-69
2023/01/17 09:57:30;;;;;;;3.97;1.70;;;20.20;60.40;;;;;;4518330;31;20262;-69
2023/01/17 10:00:23;;;;;;;5.75;1.90;;;20.10;60.40;;;;;;4527887;31;20104;-71
2023/01/17 10:03:07;;;;;;;7.00;2.50;;;20.10;60.50;;;;;;4498452;31;20235;-67
2023/01/17 10:05:39;;;;;;;;;;;20.10;60.60;;;;;;4530014;31;20135;-69
2023/01/17 10:08:27;;;;;;;7.75;3.53;;;20.00;60.80;;;;;;4518218;31;20468;-67
2023/01/17 10:11:20;;;;;;;11.27;3.35;;;20.00;61.00;;;;;;4520356;31;20285;-67
2023/01/17 10:14:05;;;;;;;17.13;4.60;;;20.00;61.40;;;;;;4523012;31;20148;-67
2023/01/17 10:16:49;;;;;;;8.55;3.78;;;20.00;61.60;;;;;;4518503;31;20301;-66
2023/01/17 10:19:31;;;;;;;13.95;4.00;;;20.10;61.90;;;;;;4529391;31;20657;-67
2023/01/17 10:22:03;;;;;;;16.67;4.60;;;20.00;62.10;;;;;;4529446;31;20130;-68
2023/01/17 10:24:57;;;;;;;13.77;3.70;;;20.10;62.00;;;;;;4512924;31;20116;-67
2023/01/17 10:27:28;;;;;;;12.52;3.72;;;20.10;62.10;;;;;;4529307;31;20132;-68
2023/01/17 10:29:54;;;;;;;8.65;3.22;;;20.10;62.20;;;;;;4526668;31;20165;-67
2023/01/17 10:32:24;;;;;;;10.23;3.33;;;20.10;62.10;;;;;;4527433;31;20146;-68
2023/01/17 10:35:04;;;;;;;7.95;3.10;;;20.10;61.90;;;;;;4511830;31;20142;-71
2023/01/17 10:37:41;;;;;;;8.55;2.92;;;20.00;61.90;;;;;;4526293;31;20124;-70
2023/01/17 10:40:31;;;;;;;10.38;2.80;;;20.10;61.90;;;;;;4526601;31;20151;-69
2023/01/17 10:43:05;;;;;;;6.88;3.05;;;20.10;61.90;;;;;;4528349;31;20092;-69
2023/01/17 10:45:39;;;;;;;8.52;3.08;;;20.00;61.70;;;;;;4527428;31;20363;-68
2023/01/17 10:48:26;;;;;;;12.45;2.88;;;20.10;61.80;;;;;;4528187;31;20200;-69
2023/01/17 10:51:02;;;;;;;5.78;2.53;;;20.10;61.70;;;;;;4513606;31;20136;-68
2023/01/17 10:53:58;;;;;;;7.70;2.35;;;20.10;61.70;;;;;;4526169;31;20189;-69
2023/01/17 10:56:27;;;;;;;8.30;2.63;;;20.00;61.60;;;;;;4518615;31;20128;-70
2023/01/17 10:59:08;;;;;;;6.18;2.17;;;20.10;61.60;;;;;;4526985;31;20608;-69
2023/01/17 11:01:34;;;;;;;6.05;2.35;;;20.10;61.50;;;;;;4528719;31;20175;-70
2023/01/17 11:04:00;;;;;;;9.43;2.38;;;20.10;61.40;;;;;;4527831;31;20253;-69
2023/01/17 11:06:26;;;;;;;5.30;2.53;;;20.10;61.30;;;;;;4528410;31;20618;-70
2023/01/17 11:08:56;;;;;;;4.40;1.92;;;20.10;61.30;;;;;;4525958;31;20128;-70
2023/01/17 11:11:30;;;;;;;6.63;2.47;;;20.10;61.20;;;;;;4518233;31;20182;-69
2023/01/17 11:14:19;;;;;;;4.35;1.90;;;20.00;61.10;;;;;;4526589;31;20310;-70
2023/01/17 11:17:00;;;;;;;4.78;1.80;;;20.10;61.10;;;;;;4527840;31;20169;-68
2023/01/17 11:19:34;;;;;;;4.63;2.08;;;20.10;61.10;;;;;;4525508;31;20147;-68
2023/01/17 11:22:03;;;;;;;7.97;1.73;;;20.10;61.00;;;;;;4528378;31;20587;-69
2023/01/17 11:24:40;;;;;;;4.60;1.90;;;20.10;60.90;;;;;;4526429;31;20120;-68
2023/01/17 11:27:21;;;;;;;6.15;1.80;;;20.10;60.90;;;;;;4528860;31;20201;-69
2023/01/17 11:29:47;;;;;;;4.95;1.88;;;20.10;60.90;;;;;;4525637;31;20179;-67
2023/01/17 11:32:22;;;;;;;3.95;1.40;;;20.10;60.70;;;;;;4527018;31;20262;-67
2023/01/17 11:35:03;;;;;;;3.92;1.42;;;20.10;60.80;;;;;;4515767;31;20278;-67
2023/01/17 11:37:29;;;;;;;6.25;1.40;;;20.10;60.70;;;;;;4529522;31;20581;-67
2023/01/17 11:40:07;;;;;;;4.43;1.60;;;20.10;60.70;;;;;;4529056;31;20136;-69
2023/01/17 11:42:36;;;;;;;3.38;1.27;;;20.10;60.70;;;;;;4517835;31;20146;-68
2023/01/17 11:45:29;;;;;;;2.58;1.33;;;20.10;60.60;;;;;;4529449;31;20167;-68
2023/01/17 11:48:07;;;;;;;2.92;1.20;;;20.10;60.60;;;;;;4531494;31;20172;-68
2023/01/17 11:50:36;;;;;;;4.13;1.48;;;20.10;61.40;;;;;;4530648;31;20473;-67
2023/01/17 11:53:06;;;;;;;1.75;1.15;;;20.10;60.60;;;;;;4531334;31;20123;-69
2023/01/17 11:55:32;;;;;;;4.22;1.30;;;20.10;60.50;;;;;;4516376;31;20261;-69
2023/01/17 11:57:58;;;;;;;2.28;1.17;;;20.10;60.50;;;;;;4516090;31;20120;-68
2023/01/17 12:00:44;;;;;;;3.47;1.20;;;20.10;60.60;;;;;;4530705;31;20222;-69
2023/01/17 12:03:35;;;;;;;2.55;1.10;;;20.10;60.50;;;;;;4516044;31;20128;-69
2023/01/17 12:06:11;;;;;;;3.03;1.20;;;20.10;60.50;;;;;;4530688;31;20150;-70
2023/01/17 12:08:43;;;;;;;2.80;1.05;;;20.10;60.50;;;;;;4516854;31;20092;-70
2023/01/17 12:11:21;;;;;;;1.92;1.05;;;20.10;60.50;;;;;;4530282;31;20127;-70
2023/01/17 12:14:24;;;;;;;5.95;1.13;;;20.10;60.50;;;;;;4530134;31;20136;-68
2023/01/17 12:17:30;;;;;;;;;;;20.10;60.50;;;;;;4530482;31;20142;-68
2023/01/17 12:20:00;;;;;;;3.95;1.00;;;20.10;60.50;;;;;;4459666;32;20029;-69
2023/01/17 12:22:32;;;;;;;4.63;1.00;;;20.10;60.50;;;;;;4467252;32;20125;-69
2023/01/17 12:25:22;;;;;;;2.25;0.95;;;20.10;60.50;;;;;;4487597;31;20147;-69
2023/01/17 12:28:03;;;;;;;1.38;0.80;;;20.10;60.40;;;;;;4520482;31;20116;-69
2023/01/17 12:30:47;;;;;;;1.60;1.10;;;20.20;60.40;;;;;;4528759;31;20271;-69
2023/01/17 12:33:38;;;;;;;2.92;0.90;;;20.20;60.30;;;;;;4521644;31;20124;-70
2023/01/17 12:36:24;;;;;;;3.38;0.98;;;20.20;60.20;;;;;;4526763;31;20175;-69
2023/01/17 12:38:50;;;;;;;3.85;1.00;;;20.20;60.20;;;;;;4529348;31;20780;-68
2023/01/17 12:41:25;;;;;;;6.57;1.00;;;20.20;60.20;;;;;;4528718;31;20124;-69
2023/01/17 12:43:59;;;;;;;2.58;1.00;;;20.20;60.20;;;;;;4528716;31;20150;-69
2023/01/17 12:46:39;;;;;;;2.38;0.73;;;20.20;60.10;;;;;;4526851;31;20258;-69
2023/01/17 12:49:40;;;;;;;1.55;0.80;;;20.20;60.10;;;;;;4528342;31;20128;-69
2023/01/17 12:52:48;;;;;;;2.03;0.90;;;20.20;60.00;;;;;;4527340;31;20225;-69
2023/01/17 12:55:20;;;;;;;3.22;0.85;;;20.20;60.00;;;;;;4503250;31;20152;-68
2023/01/17 12:57:57;;;;;;;1.80;0.77;;;20.20;60.00;;;;;;4517317;31;20254;-68
2023/01/17 13:00:28;;;;;;;1.17;0.63;;;20.20;60.00;;;;;;4504463;31;20128;-67
2023/01/17 13:03:06;;;;;;;1.65;0.60;;;20.20;59.90;;;;;;4516430;31;20217;-67
2023/01/17 13:05:37;;;;;;;2.40;0.75;;;20.20;59.90;;;;;;4517755;31;20555;-68
2023/01/17 13:08:21;;;;;;;2.75;0.77;;;20.20;59.80;;;;;;4516881;31;20136;-69
2023/01/17 13:11:02;;;;;;;3.17;0.80;;;20.20;60.70;;;;;;4516634;31;20140;-68
2023/01/17 13:13:30;;;;;;;2.20;0.80;;;20.20;59.70;;;;;;4525203;31;20194;-68
2023/01/17 13:16:01;;;;;;;1.67;0.63;;;20.20;59.70;;;;;;4518852;31;20134;-68
2023/01/17 13:18:28;;;;;;;2.47;0.73;;;20.20;59.70;;;;;;4502542;31;20145;-68
2023/01/17 13:21:09;;;;;;;1.75;0.70;;;20.30;59.70;;;;;;4528487;31;20165;-68
2023/01/17 13:24:02;;;;;;;1.77;0.70;;;20.20;59.50;;;;;;4515500;31;20161;-69
2023/01/17 13:27:05;;;;;;;3.42;1.13;;;20.20;60.30;;;;;;4516593;31;20589;-68
2023/01/17 13:30:01;;;;;;;3.03;0.55;;;20.20;59.40;;;;;;4519094;31;20136;-69
2023/01/17 13:32:46;;;;;;;3.92;0.80;;;20.20;59.30;;;;;;4523134;31;20211;-68
2023/01/17 13:35:53;;;;;;;4.40;0.93;;;20.20;59.20;;;;;;4529022;31;20469;-69
2023/01/17 13:38:40;;;;;;;2.22;0.50;;;20.20;59.30;;;;;;4526657;31;20136;-68
2023/01/17 13:41:27;;;;;;;1.30;0.47;;;20.20;59.30;;;;;;4526810;31;20128;-68
2023/01/17 13:46:57;;;;;;;2.00;0.55;;;20.20;59.30;;;;;;4526267;31;20132;-69
2023/01/17 13:49:28;;;;;;;1.27;0.40;;;20.20;59.20;;;;;;4527311;31;20147;-69
2023/01/17 13:52:19;;;;;;;2.13;0.60;;;20.20;59.20;;;;;;4528346;31;20615;-69
2023/01/17 13:54:48;;;;;;;1.65;0.70;;;20.20;59.10;;;;;;4528161;31;20641;-70
2023/01/17 13:57:27;;;;;;;2.42;0.55;;;20.20;59.00;;;;;;4527690;31;20455;-69
2023/01/17 13:59:55;;;;;;;3.70;0.47;;;20.20;59.00;;;;;;4507256;31;20688;-69
2023/01/17 14:02:33;;;;;;;5.15;0.70;;;20.20;58.90;;;;;;4526186;31;20132;-69
2023/01/17 14:05:04;;;;;;;1.80;0.77;;;20.30;58.90;;;;;;4528140;31;20203;-69
2023/01/17 14:07:33;;;;;;;1.45;0.55;;;20.30;58.80;;;;;;4526228;31;20469;-69
2023/01/17 14:09:59;;;;;;;2.90;0.70;;;20.30;58.80;;;;;;4528375;31;20135;-69
2023/01/17 14:12:31;;;;;;;2.47;0.45;;;20.30;58.70;;;;;;4528078;31;20178;-68
2023/01/17 14:14:59;;;;;;;1.70;0.57;;;20.30;58.50;;;;;;4513974;31;20139;-69
2023/01/17 14:17:34;;;;;;;2.30;0.65;;;20.30;58.40;;;;;;4526315;31;20123;-69
2023/01/17 14:20:04;;;;;;;1.60;0.40;;;20.30;58.40;;;;;;4513400;31;20135;-69
2023/01/17 14:22:54;;;;;;;1.23;0.40;;;20.40;58.30;;;;;;4528662;31;20152;-69
2023/01/17 14:25:39;;;;;;;1.08;0.50;;;20.40;58.30;;;;;;4515671;31;20281;-68
2023/01/17 14:28:25;;;;;;;1.10;0.40;;;20.40;58.30;;;;;;4526528;31;20139;-68
2023/01/17 14:30:54;;;;;;;1.23;0.30;;;20.40;58.30;;;;;;4527977;31;20278;-69
2023/01/17 14:33:32;;;;;;;2.67;0.68;;;20.30;58.20;;;;;;4526346;31;20136;-70
2023/01/17 14:36:03;;;;;;;1.63;0.50;;;20.30;58.20;;;;;;4527419;31;20252;-70
2023/01/17 14:38:31;;;;;;;1.02;0.32;;;20.30;58.20;;;;;;4527776;31;20100;-68